Time;durP1;ratioP1;P1;durP2;ratioP2;P2;SDS_P1;SDS_P2;PMS_P1;PMS_P2;Temp;Humidity;BMP_temperature;BMP_pressure;BME280_temperature;BME280_humidity;BME280_pressure;Samples;Min_cycle;Max_cycle;Signal;HPM_P1;HPM_P2
2021/04/25 00:02:24;;;;;;;19.83;9.87;;;;;;;;;;743105;187;919674;-68
2021/04/25 00:04:50;;;;;;;18.03;10.00;;;;;;;;;;759324;182;630731;-68
2021/04/25 00:07:16;;;;;;;18.13;9.80;;;;;;;;;;764995;182;631453;-68
2021/04/25 00:09:42;;;;;;;20.63;9.77;;;;;;;;;;763145;182;624194;-69
2021/04/25 00:12:08;;;;;;;20.53;10.40;;;;;;;;;;753314;182;1254265;-69
2021/04/25 00:14:34;;;;;;;23.17;12.33;;;;;;;;;;762043;182;937255;-68
2021/04/25 00:17:00;;;;;;;18.20;11.37;;;;;;;;;;754348;183;919904;-68
2021/04/25 00:19:25;;;;;;;22.23;9.47;;;;;;;;;;752508;182;918580;-68
2021/04/25 00:21:51;;;;;;;22.85;11.40;;;;;;;;;;756302;182;919267;-67
2021/04/25 00:24:17;;;;;;;14.73;8.73;;;;;;;;;;752387;182;919471;-67
2021/04/25 00:26:43;;;;;;;15.40;10.63;;;;;;;;;;745454;182;919474;-68
2021/04/25 00:29:09;;;;;;;14.20;8.90;;;;;;;;;;751532;182;919135;-68
2021/04/25 00:31:34;;;;;;;20.80;11.90;;;;;;;;;;763719;182;909448;-67
2021/04/25 00:34:00;;;;;;;25.67;10.95;;;;;;;;;;751938;182;919275;-68
2021/04/25 00:36:26;;;;;;;23.17;10.83;;;;;;;;;;751951;182;920213;-67
2021/04/25 00:38:52;;;;;;;25.43;12.23;;;;;;;;;;761742;182;919074;-67
2021/04/25 00:41:18;;;;;;;21.00;12.10;;;;;;;;;;747355;183;919716;-68
2021/04/25 00:43:44;;;;;;;24.60;12.83;;;;;;;;;;738610;186;919009;-67
2021/04/25 00:46:10;;;;;;;14.80;10.53;;;;;;;;;;758855;182;919481;-67
2021/04/25 00:48:35;;;;;;;17.90;11.50;;;;;;;;;;752935;182;919350;-68
2021/04/25 00:51:01;;;;;;;25.00;12.25;;;;;;;;;;756818;182;1021428;-68
2021/04/25 00:53:27;;;;;;;18.70;11.97;;;;;;;;;;757793;183;919483;-67
2021/04/25 00:55:53;;;;;;;27.07;13.33;;;;;;;;;;756694;184;917864;-67
2021/04/25 00:58:19;;;;;;;22.27;11.30;;;;;;;;;;753081;182;969183;-67
2021/04/25 01:00:45;;;;;;;24.77;12.63;;;;;;;;;;754779;182;922176;-68
2021/04/25 01:03:10;;;;;;;17.83;11.77;;;;;;;;;;762498;182;628043;-68
2021/04/25 01:05:36;;;;;;;19.63;11.93;;;;;;;;;;750377;181;918693;-68
2021/04/25 01:08:02;;;;;;;33.57;12.00;;;;;;;;;;756404;182;919524;-68
2021/04/25 01:10:28;;;;;;;19.70;11.17;;;;;;;;;;762542;181;620109;-68
2021/04/25 01:12:54;;;;;;;16.57;11.07;;;;;;;;;;755742;183;919196;-67
2021/04/25 01:15:22;;;;;;;16.40;10.40;;;;;;;;;;754319;182;919984;-67
2021/04/25 01:17:46;;;;;;;23.25;10.88;;;;;;;;;;754032;182;919051;-67
2021/04/25 01:20:12;;;;;;;19.25;10.98;;;;;;;;;;751843;183;917320;-70
2021/04/25 01:22:38;;;;;;;18.07;10.33;;;;;;;;;;752583;183;918287;-68
2021/04/25 01:25:04;;;;;;;16.63;10.57;;;;;;;;;;743817;185;918589;-67
2021/04/25 01:27:30;;;;;;;25.17;10.00;;;;;;;;;;747886;186;921375;-69
2021/04/25 01:30:02;;;;;;;22.73;13.03;;;;;;;;;;752934;183;922827;-68
2021/04/25 01:32:25;;;;;;;38.83;13.15;;;;;;;;;;762526;182;1028354;-67
2021/04/25 01:34:51;;;;;;;23.77;12.13;;;;;;;;;;760917;182;922271;-67
2021/04/25 01:37:17;;;;;;;25.33;11.53;;;;;;;;;;751576;182;918351;-67
2021/04/25 01:39:43;;;;;;;20.20;11.20;;;;;;;;;;754304;182;919796;-67
2021/04/25 01:42:09;;;;;;;19.87;12.50;;;;;;;;;;749570;182;1472017;-66
2021/04/25 01:44:35;;;;;;;26.03;11.90;;;;;;;;;;761173;182;918833;-67
2021/04/25 01:47:00;;;;;;;20.97;11.27;;;;;;;;;;752493;182;984306;-67
2021/04/25 01:49:26;;;;;;;29.52;15.05;;;;;;;;;;753362;182;919458;-67
2021/04/25 01:51:52;;;;;;;40.53;18.83;;;;;;;;;;755463;181;917823;-69
2021/04/25 01:54:18;;;;;;;36.40;15.70;;;;;;;;;;757556;182;919208;-67
2021/04/25 01:56:44;;;;;;;20.60;11.90;;;;;;;;;;755189;181;1020378;-67
2021/04/25 01:59:10;;;;;;;21.83;12.63;;;;;;;;;;760205;182;1636023;-67
2021/04/25 02:01:36;;;;;;;21.57;10.70;;;;;;;;;;757670;182;616443;-67
2021/04/25 02:04:01;;;;;;;18.30;10.90;;;;;;;;;;759429;182;638399;-67
2021/04/25 02:06:27;;;;;;;21.03;11.47;;;;;;;;;;760637;182;770731;-68
2021/04/25 02:08:53;;;;;;;16.47;10.73;;;;;;;;;;750901;183;919086;-68
2021/04/25 02:11:19;;;;;;;16.53;8.83;;;;;;;;;;755413;182;922087;-67
2021/04/25 02:13:45;;;;;;;15.37;10.63;;;;;;;;;;756366;182;918633;-67
2021/04/25 02:16:11;;;;;;;24.03;13.77;;;;;;;;;;760240;182;918799;-67
2021/04/25 02:18:37;;;;;;;33.50;18.00;;;;;;;;;;754489;182;919470;-67
2021/04/25 02:21:03;;;;;;;30.67;15.17;;;;;;;;;;754408;182;919088;-67
2021/04/25 02:23:28;;;;;;;24.43;12.87;;;;;;;;;;756324;182;919272;-66
2021/04/25 02:25:54;;;;;;;19.17;11.20;;;;;;;;;;754848;183;919533;-67
2021/04/25 02:28:20;;;;;;;30.00;12.75;;;;;;;;;;751756;181;975749;-67
2021/04/25 02:30:46;;;;;;;26.57;11.10;;;;;;;;;;762357;182;713923;-67
2021/04/25 02:33:12;;;;;;;27.87;11.60;;;;;;;;;;759409;182;911919;-68
2021/04/25 02:35:38;;;;;;;20.10;10.67;;;;;;;;;;758981;182;918154;-67
2021/04/25 02:38:03;;;;;;;11.93;9.17;;;;;;;;;;750742;181;920294;-66
2021/04/25 02:40:29;;;;;;;20.10;10.50;;;;;;;;;;759560;182;918715;-67
2021/04/25 02:42:55;;;;;;;19.20;11.60;;;;;;;;;;751947;181;919325;-71
2021/04/25 02:45:21;;;;;;;19.77;10.47;;;;;;;;;;754890;182;919363;-67
2021/04/25 02:47:50;;;;;;;17.73;10.63;;;;;;;;;;758460;183;919275;-67
2021/04/25 02:50:15;;;;;;;19.93;10.80;;;;;;;;;;748994;182;1207796;-67
2021/04/25 02:52:41;;;;;;;21.60;11.40;;;;;;;;;;754192;182;918728;-67
2021/04/25 02:55:08;;;;;;;22.13;10.93;;;;;;;;;;754235;182;921482;-67
2021/04/25 02:57:33;;;;;;;20.77;11.50;;;;;;;;;;748751;184;921543;-67
2021/04/25 02:59:59;;;;;;;19.20;10.43;;;;;;;;;;740800;185;921073;-67
2021/04/25 03:02:25;;;;;;;24.37;11.90;;;;;;;;;;738527;185;918553;-66
2021/04/25 03:04:51;;;;;;;20.98;11.80;;;;;;;;;;742500;186;919754;-67
2021/04/25 03:07:17;;;;;;;26.30;11.80;;;;;;;;;;721297;192;918860;-67
2021/04/25 03:09:43;;;;;;;21.23;11.30;;;;;;;;;;742454;185;919751;-68
2021/04/25 03:12:08;;;;;;;25.27;11.40;;;;;;;;;;745123;186;923647;-67
2021/04/25 03:14:34;;;;;;;23.90;12.20;;;;;;;;;;745544;184;918451;-67
2021/04/25 03:17:00;;;;;;;19.80;12.57;;;;;;;;;;740355;185;923077;-67
2021/04/25 03:19:26;;;;;;;28.43;11.97;;;;;;;;;;742351;185;961873;-67
2021/04/25 03:21:52;;;;;;;17.50;10.48;;;;;;;;;;745517;186;919837;-67
2021/04/25 03:24:19;;;;;;;17.87;10.17;;;;;;;;;;748748;185;918919;-67
2021/04/25 03:26:43;;;;;;;16.00;9.43;;;;;;;;;;738435;186;917245;-66
2021/04/25 03:29:09;;;;;;;18.40;10.07;;;;;;;;;;737938;186;918372;-67
2021/04/25 03:31:35;;;;;;;27.43;12.93;;;;;;;;;;739014;186;920628;-67
2021/04/25 03:34:01;;;;;;;14.60;9.80;;;;;;;;;;756116;181;917235;-67
2021/04/25 03:36:27;;;;;;;22.57;11.37;;;;;;;;;;760967;182;918156;-66
2021/04/25 03:38:53;;;;;;;18.53;9.40;;;;;;;;;;759716;182;920233;-66
2021/04/25 03:41:19;;;;;;;16.50;8.40;;;;;;;;;;759509;181;919501;-67
2021/04/25 03:43:45;;;;;;;12.30;8.00;;;;;;;;;;761699;183;912464;-67
2021/04/25 03:46:11;;;;;;;17.57;9.80;;;;;;;;;;748618;182;912881;-67
2021/04/25 03:48:36;;;;;;;17.53;9.10;;;;;;;;;;753810;182;918505;-66
2021/04/25 03:51:02;;;;;;;21.10;10.03;;;;;;;;;;761189;182;908850;-67
2021/04/25 03:53:28;;;;;;;16.10;8.97;;;;;;;;;;747820;184;909797;-68
2021/04/25 03:55:54;;;;;;;15.37;9.83;;;;;;;;;;749381;182;1911676;-67
2021/04/25 03:58:20;;;;;;;16.53;8.13;;;;;;;;;;755751;183;919190;-66
2021/04/25 04:00:46;;;;;;;17.57;8.80;;;;;;;;;;758478;182;918474;-68
2021/04/25 04:03:12;;;;;;;20.50;8.10;;;;;;;;;;755643;182;918230;-67
2021/04/25 04:05:38;;;;;;;19.57;9.60;;;;;;;;;;755986;181;919455;-68
2021/04/25 04:08:04;;;;;;;17.53;9.63;;;;;;;;;;757741;182;903339;-67
2021/04/25 04:10:30;;;;;;;23.10;8.20;;;;;;;;;;762150;182;623374;-67
2021/04/25 04:12:56;;;;;;;15.23;7.90;;;;;;;;;;753489;181;919123;-68
2021/04/25 04:15:21;;;;;;;17.60;9.03;;;;;;;;;;762006;181;918330;-67
2021/04/25 04:17:47;;;;;;;19.37;8.07;;;;;;;;;;749465;184;1664356;-69
2021/04/25 04:20:13;;;;;;;19.73;8.45;;;;;;;;;;755284;182;931420;-67
2021/04/25 04:22:39;;;;;;;15.43;8.20;;;;;;;;;;753098;182;969158;-67
2021/04/25 04:25:05;;;;;;;15.10;7.80;;;;;;;;;;763565;182;918691;-67
2021/04/25 04:27:31;;;;;;;16.47;8.37;;;;;;;;;;755188;180;919505;-67
2021/04/25 04:29:57;;;;;;;16.47;9.10;;;;;;;;;;756714;182;919440;-67
2021/04/25 04:32:23;;;;;;;14.93;7.97;;;;;;;;;;761166;181;816581;-66
2021/04/25 04:34:49;;;;;;;15.97;8.47;;;;;;;;;;755182;182;919302;-66
2021/04/25 04:37:15;;;;;;;18.77;8.20;;;;;;;;;;754299;182;919530;-67
2021/04/25 04:39:41;;;;;;;14.10;8.20;;;;;;;;;;764517;182;919051;-67
2021/04/25 04:42:07;;;;;;;17.50;8.93;;;;;;;;;;760776;182;919009;-66
2021/04/25 04:44:33;;;;;;;19.63;9.57;;;;;;;;;;756106;182;919251;-68
2021/04/25 04:46:59;;;;;;;22.30;10.43;;;;;;;;;;761671;183;919318;-68
2021/04/25 04:49:24;;;;;;;21.70;9.17;;;;;;;;;;755975;182;919379;-67
2021/04/25 04:51:50;;;;;;;14.90;8.33;;;;;;;;;;757177;182;921167;-67
2021/04/25 04:54:16;;;;;;;19.03;9.20;;;;;;;;;;756004;182;918940;-67
2021/04/25 04:56:42;;;;;;;12.57;8.07;;;;;;;;;;759217;182;919219;-67
2021/04/25 04:59:08;;;;;;;15.13;8.20;;;;;;;;;;753064;182;919309;-67
2021/04/25 05:01:34;;;;;;;17.10;10.13;;;;;;;;;;752742;182;919543;-66
2021/04/25 05:03:59;;;;;;;18.37;9.73;;;;;;;;;;753658;182;1720760;-66
2021/04/25 05:06:25;;;;;;;17.57;9.40;;;;;;;;;;756454;181;919053;-67
2021/04/25 05:08:51;;;;;;;18.30;10.40;;;;;;;;;;753020;182;919489;-67
2021/04/25 05:11:17;;;;;;;20.90;10.00;;;;;;;;;;761025;182;939915;-69
2021/04/25 05:13:43;;;;;;;14.90;8.60;;;;;;;;;;753698;182;919279;-68
2021/04/25 05:16:09;;;;;;;19.73;8.93;;;;;;;;;;757442;181;918913;-68
2021/04/25 05:18:37;;;;;;;18.57;8.43;;;;;;;;;;753383;182;920632;-67
2021/04/25 05:21:00;;;;;;;16.93;9.60;;;;;;;;;;747004;185;916916;-66
2021/04/25 05:23:26;;;;;;;16.47;8.63;;;;;;;;;;745629;185;905566;-67
2021/04/25 05:25:52;;;;;;;15.43;8.18;;;;;;;;;;742066;185;942273;-67
2021/04/25 05:28:18;;;;;;;17.87;10.17;;;;;;;;;;748019;186;616846;-66
2021/04/25 05:30:44;;;;;;;16.30;8.93;;;;;;;;;;719160;192;915848;-67
2021/04/25 05:33:09;;;;;;;14.57;8.30;;;;;;;;;;741376;185;914492;-67
2021/04/25 05:35:35;;;;;;;13.50;8.57;;;;;;;;;;744238;184;918564;-69
2021/04/25 05:38:01;;;;;;;25.90;9.53;;;;;;;;;;745946;184;922753;-67
2021/04/25 05:40:27;;;;;;;18.57;9.40;;;;;;;;;;745560;185;913052;-67
2021/04/25 05:42:53;;;;;;;15.25;8.75;;;;;;;;;;733792;189;930117;-66
2021/04/25 05:45:21;;;;;;;15.17;8.40;;;;;;;;;;744330;182;919331;-68
2021/04/25 05:47:46;;;;;;;14.10;9.00;;;;;;;;;;742281;185;950471;-70
2021/04/25 05:50:12;;;;;;;11.93;7.07;;;;;;;;;;739549;185;918581;-66
2021/04/25 05:52:38;;;;;;;14.43;7.53;;;;;;;;;;733770;191;919327;-67
2021/04/25 05:55:04;;;;;;;11.27;6.53;;;;;;;;;;748693;182;919233;-66
2021/04/25 05:57:30;;;;;;;12.13;6.33;;;;;;;;;;739496;186;918492;-67
2021/04/25 05:59:56;;;;;;;14.60;7.43;;;;;;;;;;734877;191;918354;-67
2021/04/25 06:02:22;;;;;;;14.20;7.77;;;;;;;;;;741826;185;1012020;-67
2021/04/25 06:04:48;;;;;;;17.90;8.17;;;;;;;;;;746263;185;919614;-67
2021/04/25 06:07:14;;;;;;;15.40;7.37;;;;;;;;;;747880;185;917976;-67
2021/04/25 06:09:39;;;;;;;11.40;7.17;;;;;;;;;;730398;186;958253;-66
2021/04/25 06:12:05;;;;;;;11.33;5.97;;;;;;;;;;745618;182;2106306;-67
2021/04/25 06:14:31;;;;;;;10.90;5.23;;;;;;;;;;755111;182;919100;-67
2021/04/25 06:16:57;;;;;;;14.73;5.03;;;;;;;;;;756059;183;919616;-66
2021/04/25 06:19:23;;;;;;;14.03;6.73;;;;;;;;;;758049;182;919701;-67
2021/04/25 06:21:49;;;;;;;9.52;6.60;;;;;;;;;;753217;182;919838;-67
2021/04/25 06:24:15;;;;;;;12.10;6.33;;;;;;;;;;760056;181;918905;-67
2021/04/25 06:26:41;;;;;;;21.00;6.87;;;;;;;;;;755980;182;918869;-67
2021/04/25 06:29:06;;;;;;;11.63;7.17;;;;;;;;;;743855;185;919105;-67
2021/04/25 06:31:34;;;;;;;13.10;7.33;;;;;;;;;;750105;186;919157;-66
2021/04/25 06:34:00;;;;;;;11.53;6.10;;;;;;;;;;727026;189;1466049;-67
2021/04/25 06:36:26;;;;;;;14.83;6.63;;;;;;;;;;747133;185;919477;-66
2021/04/25 06:38:52;;;;;;;17.43;6.93;;;;;;;;;;738683;186;919372;-66
2021/04/25 06:41:17;;;;;;;15.27;7.40;;;;;;;;;;761424;181;919497;-66
2021/04/25 06:43:43;;;;;;;13.00;6.77;;;;;;;;;;753150;181;919376;-66
2021/04/25 06:46:09;;;;;;;14.10;7.00;;;;;;;;;;756563;181;919470;-68
2021/04/25 06:48:35;;;;;;;17.65;8.13;;;;;;;;;;760803;182;916568;-66
2021/04/25 06:51:01;;;;;;;9.73;5.93;;;;;;;;;;757838;181;919083;-66
2021/04/25 06:53:27;;;;;;;12.43;6.97;;;;;;;;;;757656;182;919645;-66
2021/04/25 06:55:52;;;;;;;12.73;7.33;;;;;;;;;;754280;182;919426;-66
2021/04/25 06:58:18;;;;;;;15.03;8.53;;;;;;;;;;748598;185;919485;-67
2021/04/25 07:00:44;;;;;;;12.37;7.47;;;;;;;;;;750669;185;617842;-68
2021/04/25 07:03:10;;;;;;;15.17;6.63;;;;;;;;;;762026;181;625354;-66
2021/04/25 07:05:36;;;;;;;19.53;7.80;;;;;;;;;;755575;184;883525;-67
2021/04/25 07:08:02;;;;;;;12.13;6.90;;;;;;;;;;747307;182;919592;-68
2021/04/25 07:10:28;;;;;;;11.55;6.72;;;;;;;;;;736869;185;1020577;-66
2021/04/25 07:12:55;;;;;;;12.73;7.63;;;;;;;;;;749008;185;919117;-66
2021/04/25 07:15:21;;;;;;;12.53;6.60;;;;;;;;;;741840;186;918933;-67
2021/04/25 07:17:47;;;;;;;12.43;7.67;;;;;;;;;;752578;182;1021378;-67
2021/04/25 07:20:13;;;;;;;12.27;7.13;;;;;;;;;;757106;181;1147274;-67
2021/04/25 07:22:39;;;;;;;13.60;7.13;;;;;;;;;;755817;183;1021701;-67
2021/04/25 07:25:05;;;;;;;12.80;8.00;;;;;;;;;;754506;181;918084;-66
2021/04/25 07:27:31;;;;;;;15.05;6.45;;;;;;;;;;753187;182;929627;-66
2021/04/25 07:29:57;;;;;;;10.07;4.40;;;;;;;;;;755825;182;640032;-66
2021/04/25 07:32:23;;;;;;;18.17;9.80;;;;;;;;;;751086;182;1252834;-67
2021/04/25 07:34:49;;;;;;;16.80;7.10;;;;;;;;;;748383;182;919838;-65
2021/04/25 07:37:14;;;;;;;15.67;7.90;;;;;;;;;;756905;182;919246;-67
2021/04/25 07:39:40;;;;;;;11.57;6.47;;;;;;;;;;753861;182;919337;-69
2021/04/25 07:42:07;;;;;;;16.30;9.77;;;;;;;;;;751545;182;919393;-67
2021/04/25 07:44:34;;;;;;;12.63;8.50;;;;;;;;;;758077;182;920713;-66
2021/04/25 07:46:59;;;;;;;13.03;6.23;;;;;;;;;;754911;182;920206;-68
2021/04/25 07:49:25;;;;;;;16.70;8.95;;;;;;;;;;754986;182;918874;-66
2021/04/25 07:51:51;;;;;;;12.60;7.97;;;;;;;;;;755443;182;918123;-66
2021/04/25 07:54:17;;;;;;;13.70;6.40;;;;;;;;;;751738;182;923199;-67
2021/04/25 07:56:43;;;;;;;15.95;8.85;;;;;;;;;;750292;182;921578;-68
2021/04/25 07:59:08;;;;;;;9.67;5.43;;;;;;;;;;752624;181;922635;-66
2021/04/25 08:01:34;;;;;;;14.30;5.60;;;;;;;;;;757521;182;1087935;-67
2021/04/25 08:04:02;;;;;;;12.50;6.30;;;;;;;;;;745180;185;916694;-67
2021/04/25 08:06:28;;;;;;;10.20;5.70;;;;;;;;;;755972;182;1016111;-67
2021/04/25 08:08:54;;;;;;;16.07;4.73;;;;;;;;;;760820;182;1010832;-66
2021/04/25 08:11:19;;;;;;;10.87;5.30;;;;;;;;;;753830;182;931114;-66
2021/04/25 08:13:45;;;;;;;8.88;5.18;;;;;;;;;;755780;182;919999;-66
2021/04/25 08:16:11;;;;;;;10.63;5.93;;;;;;;;;;754192;181;920441;-67
2021/04/25 08:18:37;;;;;;;17.73;5.90;;;;;;;;;;754114;182;919541;-66
2021/04/25 08:21:03;;;;;;;15.13;5.83;;;;;;;;;;752783;181;921109;-68
2021/04/25 08:23:29;;;;;;;12.60;6.23;;;;;;;;;;754609;182;919168;-66
2021/04/25 08:25:55;;;;;;;10.07;6.53;;;;;;;;;;761529;182;919075;-67
2021/04/25 08:28:21;;;;;;;10.10;6.10;;;;;;;;;;752440;182;919813;-67
2021/04/25 08:30:46;;;;;;;9.87;6.47;;;;;;;;;;751036;182;919831;-67
2021/04/25 08:33:12;;;;;;;11.60;6.13;;;;;;;;;;753198;184;913264;-66
2021/04/25 08:35:38;;;;;;;14.50;5.50;;;;;;;;;;744561;185;918530;-66
2021/04/25 08:38:04;;;;;;;12.03;5.17;;;;;;;;;;740657;185;925565;-67
2021/04/25 08:40:30;;;;;;;12.00;5.90;;;;;;;;;;744278;186;1021935;-66
2021/04/25 08:42:55;;;;;;;9.47;5.37;;;;;;;;;;756138;182;919128;-66
2021/04/25 08:45:21;;;;;;;11.80;6.30;;;;;;;;;;744941;183;917470;-66
2021/04/25 08:47:57;;;;;;;12.33;5.13;;;;;;;;;;753541;182;919400;-67
2021/04/25 08:50:22;;;;;;;15.40;5.40;;;;;;;;;;748817;185;919024;-67
2021/04/25 08:52:47;;;;;;;12.32;7.75;;;;;;;;;;739860;185;1632571;-66
2021/04/25 08:55:13;;;;;;;12.53;6.23;;;;;;;;;;744101;185;919345;-66
2021/04/25 08:57:39;;;;;;;12.20;5.50;;;;;;;;;;744803;185;919070;-67
2021/04/25 09:00:06;;;;;;;11.63;6.07;;;;;;;;;;744137;182;925165;-66
2021/04/25 09:02:32;;;;;;;9.70;5.37;;;;;;;;;;751332;182;919078;-72
2021/04/25 09:04:58;;;;;;;10.10;6.73;;;;;;;;;;755479;182;919189;-66
2021/04/25 09:07:24;;;;;;;8.40;5.60;;;;;;;;;;758618;182;919466;-69
2021/04/25 09:09:51;;;;;;;14.70;5.67;;;;;;;;;;752174;182;1078675;-67
2021/04/25 09:12:22;;;;;;;7.00;4.07;;;;;;;;;;757303;182;915304;-66
2021/04/25 09:14:47;;;;;;;12.33;5.10;;;;;;;;;;758937;182;919074;-67
2021/04/25 09:17:14;;;;;;;10.63;5.90;;;;;;;;;;752597;180;919095;-66
2021/04/25 09:19:45;;;;;;;9.97;5.87;;;;;;;;;;755644;182;919048;-66
2021/04/25 09:22:11;;;;;;;10.73;6.37;;;;;;;;;;755701;182;976228;-66
2021/04/25 09:24:37;;;;;;;8.90;5.43;;;;;;;;;;754734;182;919572;-66
2021/04/25 09:27:03;;;;;;;13.50;5.00;;;;;;;;;;753646;182;966454;-65
2021/04/25 09:29:29;;;;;;;10.05;5.50;;;;;;;;;;755734;182;856852;-67
2021/04/25 09:31:55;;;;;;;8.10;5.30;;;;;;;;;;750229;185;919063;-66
2021/04/25 09:34:23;;;;;;;12.43;6.20;;;;;;;;;;732380;188;999764;-67
2021/04/25 09:36:49;;;;;;;11.23;7.13;;;;;;;;;;733592;189;918299;-66
2021/04/25 09:39:15;;;;;;;10.80;6.17;;;;;;;;;;741790;185;918947;-66
2021/04/25 09:41:41;;;;;;;13.60;5.93;;;;;;;;;;746287;186;925767;-66
2021/04/25 09:44:07;;;;;;;10.77;5.83;;;;;;;;;;727018;188;922857;-67
2021/04/25 09:46:39;;;;;;;12.27;5.70;;;;;;;;;;738766;187;915688;-67
2021/04/25 09:49:05;;;;;;;14.15;7.87;;;;;;;;;;755716;182;916310;-66
2021/04/25 09:51:31;;;;;;;21.13;9.30;;;;;;;;;;751686;184;913520;-67
2021/04/25 09:53:57;;;;;;;15.98;8.52;;;;;;;;;;752411;182;915979;-66
2021/04/25 09:56:23;;;;;;;11.23;7.20;;;;;;;;;;751817;182;917676;-68
2021/04/25 09:58:55;;;;;;;8.03;4.57;;;;;;;;;;760903;182;706383;-66
2021/04/25 10:01:26;;;;;;;8.20;4.63;;;;;;;;;;754382;182;919127;-66
2021/04/25 10:03:51;;;;;;;8.83;4.40;;;;;;;;;;753639;182;1020857;-70
2021/04/25 10:06:19;;;;;;;8.43;4.10;;;;;;;;;;754762;182;919808;-70
2021/04/25 10:08:44;;;;;;;10.35;4.85;;;;;;;;;;759136;182;919085;-68
2021/04/25 10:11:09;;;;;;;11.20;5.07;;;;;;;;;;738473;185;918916;-67
2021/04/25 10:13:36;;;;;;;7.57;4.57;;;;;;;;;;743777;185;917895;-69
2021/04/25 10:16:01;;;;;;;10.37;5.30;;;;;;;;;;743984;186;918840;-72
2021/04/25 10:18:27;;;;;;;10.60;4.70;;;;;;;;;;757122;182;919226;-73
2021/04/25 10:20:52;;;;;;;21.77;4.93;;;;;;;;;;739772;184;923239;-68
2021/04/25 10:23:18;;;;;;;10.03;5.23;;;;;;;;;;759360;182;921167;-67
2021/04/25 10:25:45;;;;;;;7.53;5.17;;;;;;;;;;759075;181;920255;-68
2021/04/25 10:28:15;;;;;;;13.77;4.90;;;;;;;;;;756357;182;936021;-66
2021/04/25 10:30:41;;;;;;;7.63;4.40;;;;;;;;;;756999;180;918655;-67
2021/04/25 10:33:07;;;;;;;10.47;5.20;;;;;;;;;;761925;180;917575;-67
2021/04/25 10:35:34;;;;;;;9.33;4.60;;;;;;;;;;754473;181;914908;-67
2021/04/25 10:37:59;;;;;;;8.97;5.03;;;;;;;;;;736606;182;4367014;-67
2021/04/25 10:40:28;;;;;;;7.33;4.20;;;;;;;;;;760203;182;915901;-66
2021/04/25 10:42:52;;;;;;;10.17;5.03;;;;;;;;;;757126;182;913258;-67
2021/04/25 10:45:18;;;;;;;7.43;3.70;;;;;;;;;;754533;182;919472;-68
2021/04/25 10:47:44;;;;;;;7.80;4.30;;;;;;;;;;743410;185;919376;-68
2021/04/25 10:50:24;;;;;;;7.40;3.43;;;;;;;;;;751014;184;919579;-66
2021/04/25 10:52:51;;;;;;;9.53;5.60;;;;;;;;;;741341;185;919273;-68
2021/04/25 10:55:33;;;;;;;10.05;5.40;;;;;;;;;;740287;186;921478;-67
2021/04/25 10:58:12;;;;;;;11.63;6.43;;;;;;;;;;746370;185;918235;-68
2021/04/25 11:00:38;;;;;;;12.10;7.13;;;;;;;;;;743138;186;919004;-68
2021/04/25 11:03:05;;;;;;;13.10;6.27;;;;;;;;;;746451;182;919146;-67
2021/04/25 11:05:43;;;;;;;15.17;7.30;;;;;;;;;;746457;182;635288;-68
2021/04/25 11:08:27;;;;;;;11.87;6.63;;;;;;;;;;744668;185;861410;-67
2021/04/25 11:10:55;;;;;;;12.27;7.13;;;;;;;;;;741145;188;618534;-69
2021/04/25 11:13:26;;;;;;;19.73;5.10;;;;;;;;;;735018;188;809478;-68
2021/04/25 11:15:51;;;;;;;9.90;5.93;;;;;;;;;;734860;187;1021756;-67
2021/04/25 11:18:23;;;;;;;9.57;5.13;;;;;;;;;;727912;188;918703;-68
2021/04/25 11:20:49;;;;;;;7.62;4.93;;;;;;;;;;754379;185;918372;-67
2021/04/25 11:23:34;;;;;;;9.90;5.90;;;;;;;;;;732871;185;2346242;-66
2021/04/25 11:26:00;;;;;;;7.33;4.57;;;;;;;;;;742067;185;919469;-68
2021/04/25 11:28:28;;;;;;;9.70;5.13;;;;;;;;;;736894;185;916762;-66
2021/04/25 11:30:54;;;;;;;11.30;5.77;;;;;;;;;;747413;186;918211;-67
2021/04/25 11:33:28;;;;;;;7.63;5.67;;;;;;;;;;739376;187;919529;-70
2021/04/25 11:35:54;;;;;;;10.73;4.60;;;;;;;;;;729433;189;921016;-69
2021/04/25 11:38:20;;;;;;;12.20;5.30;;;;;;;;;;752400;181;918516;-67
2021/04/25 11:40:46;;;;;;;9.50;5.57;;;;;;;;;;746006;186;913467;-66
2021/04/25 11:43:12;;;;;;;8.63;4.70;;;;;;;;;;749473;182;2262259;-65
2021/04/25 11:45:38;;;;;;;7.80;4.77;;;;;;;;;;751216;182;1211323;-66
2021/04/25 11:48:05;;;;;;;10.93;4.00;;;;;;;;;;761899;182;919440;-67
2021/04/25 11:50:29;;;;;;;6.73;3.50;;;;;;;;;;752648;182;909759;-66
2021/04/25 11:52:55;;;;;;;15.13;5.30;;;;;;;;;;758215;183;919776;-66
2021/04/25 11:55:22;;;;;;;13.43;4.50;;;;;;;;;;752847;182;918799;-66
2021/04/25 11:57:49;;;;;;;7.80;4.97;;;;;;;;;;754018;182;919533;-67
2021/04/25 12:00:14;;;;;;;7.83;4.13;;;;;;;;;;741901;184;918373;-67
2021/04/25 12:02:57;;;;;;;7.17;4.17;;;;;;;;;;741339;186;921543;-66
2021/04/25 12:05:23;;;;;;;7.45;4.90;;;;;;;;;;742551;185;921560;-68
2021/04/25 12:07:52;;;;;;;7.77;4.80;;;;;;;;;;746769;186;918830;-70
2021/04/25 12:10:22;;;;;;;9.17;4.90;;;;;;;;;;739379;185;1100799;-68
2021/04/25 12:13:08;;;;;;;11.23;5.77;;;;;;;;;;743519;185;920809;-68
2021/04/25 12:15:37;;;;;;;5.97;3.60;;;;;;;;;;754867;182;633980;-68
2021/04/25 12:18:03;;;;;;;9.20;5.07;;;;;;;;;;756901;182;918897;-69
2021/04/25 12:20:29;;;;;;;7.80;4.00;;;;;;;;;;754619;181;949915;-68
2021/04/25 12:22:55;;;;;;;13.77;5.95;;;;;;;;;;751391;182;916851;-69
2021/04/25 12:25:22;;;;;;;7.47;4.20;;;;;;;;;;750505;182;916322;-71
2021/04/25 12:27:48;;;;;;;9.00;4.47;;;;;;;;;;760194;182;915661;-69
2021/04/25 12:30:15;;;;;;;9.50;4.70;;;;;;;;;;756280;182;919209;-69
2021/04/25 12:32:41;;;;;;;6.30;3.70;;;;;;;;;;750754;182;1203920;-67
2021/04/25 12:35:07;;;;;;;13.07;4.93;;;;;;;;;;750676;182;918791;-68
2021/04/25 12:37:35;;;;;;;8.90;4.43;;;;;;;;;;758062;182;918119;-69
2021/04/25 12:40:01;;;;;;;7.27;4.47;;;;;;;;;;753879;182;919701;-68
2021/04/25 12:42:26;;;;;;;5.73;3.87;;;;;;;;;;751982;182;953235;-67
2021/04/25 12:44:52;;;;;;;6.90;2.83;;;;;;;;;;757784;182;919204;-69
2021/04/25 12:47:18;;;;;;;6.80;4.00;;;;;;;;;;746947;181;919618;-68
2021/04/25 12:49:44;;;;;;;8.17;4.13;;;;;;;;;;755495;181;919354;-69
2021/04/25 12:52:11;;;;;;;5.70;3.33;;;;;;;;;;758176;182;1067519;-68
2021/04/25 12:54:39;;;;;;;8.25;4.37;;;;;;;;;;758850;183;922319;-69
2021/04/25 12:57:05;;;;;;;11.70;5.40;;;;;;;;;;747283;185;916303;-68
2021/04/25 12:59:32;;;;;;;6.83;4.40;;;;;;;;;;740140;186;919325;-68
2021/04/25 13:02:13;;;;;;;10.63;4.30;;;;;;;;;;761499;181;813338;-68
2021/04/25 13:04:49;;;;;;;9.63;5.13;;;;;;;;;;756148;184;914477;-68
2021/04/25 13:07:19;;;;;;;6.13;4.20;;;;;;;;;;744503;183;919611;-67
2021/04/25 13:09:44;;;;;;;8.00;5.07;;;;;;;;;;744894;185;919358;-66
2021/04/25 13:12:16;;;;;;;7.03;4.27;;;;;;;;;;741422;185;1176772;-71
2021/04/25 13:14:48;;;;;;;7.63;4.10;;;;;;;;;;756287;181;919417;-68
2021/04/25 13:17:15;;;;;;;5.20;3.33;;;;;;;;;;755849;183;922214;-70
2021/04/25 13:19:41;;;;;;;8.20;3.57;;;;;;;;;;756255;182;919613;-68
2021/04/25 13:22:06;;;;;;;8.50;3.90;;;;;;;;;;754233;182;919128;-68
2021/04/25 13:24:32;;;;;;;10.00;4.00;;;;;;;;;;757461;182;919138;-68
2021/04/25 13:26:58;;;;;;;3.63;2.90;;;;;;;;;;752670;182;919139;-69
2021/04/25 13:29:24;;;;;;;6.70;3.10;;;;;;;;;;746288;181;919244;-68
2021/04/25 13:31:50;;;;;;;8.33;3.20;;;;;;;;;;763147;182;637020;-69
2021/04/25 13:34:16;;;;;;;4.60;2.58;;;;;;;;;;754921;182;919148;-68
2021/04/25 13:36:42;;;;;;;6.47;3.63;;;;;;;;;;744362;185;919316;-68
2021/04/25 13:39:07;;;;;;;5.72;4.07;;;;;;;;;;741411;185;918917;-68
2021/04/25 13:41:33;;;;;;;2.90;1.83;;;;;;;;;;753201;185;919002;-67
2021/04/25 13:43:59;;;;;;;6.73;2.67;;;;;;;;;;739868;186;914337;-69
2021/04/25 13:46:25;;;;;;;4.17;2.50;;;;;;;;;;753722;182;1021778;-69
2021/04/25 13:48:51;;;;;;;6.20;2.73;;;;;;;;;;758226;182;919403;-68
2021/04/25 13:51:17;;;;;;;7.50;2.93;;;;;;;;;;757786;182;925450;-69
2021/04/25 13:53:43;;;;;;;5.27;2.77;;;;;;;;;;755081;182;927481;-70
2021/04/25 13:56:08;;;;;;;9.60;3.70;;;;;;;;;;750420;181;919300;-69
2021/04/25 13:58:34;;;;;;;11.37;3.20;;;;;;;;;;755818;182;1021524;-70
2021/04/25 14:01:00;;;;;;;4.20;2.97;;;;;;;;;;748593;181;2744351;-69
2021/04/25 14:03:26;;;;;;;5.37;3.23;;;;;;;;;;758933;182;919273;-69
2021/04/25 14:05:52;;;;;;;6.47;2.80;;;;;;;;;;751645;183;919134;-68
2021/04/25 14:08:18;;;;;;;3.70;1.97;;;;;;;;;;758859;182;915712;-69
2021/04/25 14:10:44;;;;;;;4.30;2.70;;;;;;;;;;753182;182;968914;-68
2021/04/25 14:13:10;;;;;;;6.10;2.97;;;;;;;;;;760748;182;919082;-69